5CO5 weather

Black Hollow Heliport
Carr, Colorado, United States

Public forecast

Using degrees Fahrenheit for public forecast. Weather courtesy of forecast.io.

Closest aviation weather report (METAR) to Black Hollow Heliport

Closest report is Northern Colorado Regional Airport, 13.9 nm (25.8 km) SSW. Retrieved 2020/02/23 16:56 UTC (42 minutes ago):

KFNL 231656Z AUTO 17003KT 10SM OVC070 06/M06 A3003 RMK AO2 SLP163 T00611061

Closest aviation forecast (TAF) to Black Hollow Heliport

Closest forecast is Cheyenne Regional Jerry Olson Field, 29.4 nm (54.4 km) N. Retrieved 2020/02/23 12:22 UTC (5 hours ago):

TAF KCYS 231120Z 2312/2412 30005KT P6SM BKN120 FM231400 13007KT P6SM VCSH SCT040 BKN060 FM232100 22008KT P6SM VCSH OVC030 FM240600 28025G35KT P6SM SCT100 WS014/29035KT